createdAt,value
2022-08-10T00:07:33.135Z,14.10
2022-08-10T00:13:09.118Z,14.10
2022-08-10T00:18:37.390Z,14.00
2022-08-10T00:29:39.125Z,13.90
2022-08-10T00:34:47.706Z,13.80
2022-08-10T00:40:01.057Z,13.70
2022-08-10T01:02:53.563Z,13.40
2022-08-10T01:14:31.067Z,13.40
2022-08-10T01:26:33.418Z,13.30
2022-08-10T01:31:57.890Z,13.30
2022-08-10T01:42:53.426Z,13.30
2022-08-10T01:48:35.671Z,13.20
2022-08-10T01:54:08.158Z,13.10
2022-08-10T01:59:58.649Z,13.00
2022-08-10T02:05:18.417Z,12.90
2022-08-10T02:10:30.765Z,12.80
2022-08-10T02:16:09.838Z,12.70
2022-08-10T02:21:18.060Z,12.70
2022-08-10T02:26:28.612Z,12.60
2022-08-10T02:37:30.281Z,12.60
2022-08-10T02:45:16.039Z,12.50
2022-08-10T02:48:26.963Z,12.50
2022-08-10T02:53:51.618Z,12.50
2022-08-10T02:59:17.881Z,12.40
2022-08-10T03:16:19.827Z,12.20
2022-08-10T03:27:33.744Z,12.10
2022-08-10T03:33:01.255Z,12.20
2022-08-10T03:38:37.869Z,12.20
2022-08-10T03:43:49.884Z,12.10
2022-08-10T03:49:01.252Z,12.10
2022-08-10T03:59:49.850Z,12.20
2022-08-10T04:04:55.756Z,12.20
2022-08-10T04:10:01.460Z,12.30
2022-08-10T04:15:10.478Z,12.40
2022-08-10T04:20:18.769Z,12.40
2022-08-10T04:25:26.411Z,12.50
2022-08-10T04:30:33.559Z,12.60
2022-08-10T04:35:40.585Z,12.70
2022-08-10T04:40:47.495Z,12.80
2022-08-10T04:46:04.020Z,13.00
2022-08-10T04:51:19.787Z,13.10
2022-08-10T04:56:31.450Z,13.30
2022-08-10T05:02:29.543Z,13.60
2022-08-10T05:06:40.968Z,13.80
2022-08-10T05:11:46.459Z,14.00
2022-08-10T05:16:53.399Z,14.40
2022-08-10T05:22:04.921Z,14.70
2022-08-10T05:27:10.246Z,14.90
2022-08-10T05:32:14.886Z,15.10
2022-08-10T05:38:10.158Z,15.30
2022-08-10T05:42:30.092Z,15.60
2022-08-10T05:48:54.954Z,15.80
2022-08-10T05:52:42.830Z,16.10
2022-08-10T05:57:48.749Z,16.40
2022-08-10T06:02:57.284Z,16.60
2022-08-10T06:08:05.637Z,16.90
2022-08-10T06:13:34.774Z,17.20
2022-08-10T06:18:38.281Z,17.40
2022-08-10T06:23:45.474Z,17.70
2022-08-10T06:29:02.165Z,17.90
2022-08-10T06:34:02.564Z,18.20
2022-08-10T06:39:30.323Z,18.40
2022-08-10T06:44:18.550Z,18.80
2022-08-10T06:49:24.867Z,19.00
2022-08-10T06:54:33.659Z,19.40
2022-08-10T06:59:48.833Z,19.70
2022-08-10T07:05:03.605Z,19.90
2022-08-10T07:10:10.563Z,20.20
2022-08-10T07:15:18.450Z,20.60
2022-08-10T07:20:25.025Z,20.70
2022-08-10T07:25:32.131Z,21.10
2022-08-10T07:30:42.297Z,21.40
2022-08-10T07:35:50.185Z,21.50
2022-08-10T07:40:56.825Z,21.70
2022-08-10T07:46:05.360Z,22.30
2022-08-10T07:51:13.630Z,22.80
2022-08-10T07:56:47.293Z,23.00
2022-08-10T08:01:32.337Z,23.10
2022-08-10T08:06:38.513Z,23.50
2022-08-10T08:11:45.820Z,23.70
2022-08-10T08:16:54.297Z,24.00
2022-08-10T08:24:07.519Z,24.60
2022-08-10T08:27:08.111Z,25.20
2022-08-10T08:32:16.896Z,25.60
2022-08-10T08:38:31.461Z,26.00
2022-08-10T08:42:50.842Z,26.70
2022-08-10T08:48:14.057Z,26.20
2022-08-10T08:54:02.170Z,26.90
2022-08-10T08:59:05.364Z,26.90
2022-08-10T09:04:30.162Z,26.90
2022-08-10T09:09:41.163Z,27.00
2022-08-10T09:14:52.426Z,27.50
2022-08-10T09:20:06.734Z,27.90
2022-08-10T09:25:18.623Z,28.00
2022-08-10T09:31:03.575Z,28.40
2022-08-10T09:36:33.346Z,28.80
2022-08-10T09:41:42.546Z,27.80
2022-08-10T09:47:07.146Z,26.60
2022-08-10T09:52:43.886Z,27.40
2022-08-10T09:57:56.996Z,27.50
2022-08-10T10:03:26.016Z,28.00
2022-08-10T10:08:58.501Z,28.30
2022-08-10T10:14:20.527Z,29.20
2022-08-10T10:19:40.699Z,29.90
2022-08-10T10:24:50.533Z,29.90
2022-08-10T10:30:07.639Z,29.80
2022-08-10T10:35:27.394Z,30.20
2022-08-10T10:40:35.681Z,30.50
2022-08-10T10:45:50.305Z,30.50
2022-08-10T10:51:10.291Z,28.30
2022-08-10T10:56:16.456Z,27.30
2022-08-10T11:01:43.135Z,28.40
2022-08-10T11:07:00.571Z,27.60
2022-08-10T11:12:09.023Z,27.60
2022-08-10T11:17:34.085Z,29.10
2022-08-10T11:22:48.001Z,29.80
2022-08-10T11:28:18.790Z,28.50
2022-08-10T11:34:11.350Z,28.00
2022-08-10T11:39:14.525Z,29.00
2022-08-10T11:44:30.151Z,29.20
2022-08-10T11:50:06.674Z,28.10
2022-08-10T11:55:20.730Z,28.80
2022-08-10T12:00:32.506Z,29.90
2022-08-10T12:05:52.103Z,30.20
2022-08-10T12:10:50.496Z,29.90
2022-08-10T12:16:10.950Z,30.20
2022-08-10T12:21:22.184Z,30.30
2022-08-10T12:26:32.202Z,30.50
2022-08-10T12:31:43.182Z,30.70
2022-08-10T12:36:54.273Z,30.00
2022-08-10T12:42:09.861Z,28.70
2022-08-10T12:47:20.863Z,28.70
2022-08-10T12:52:32.759Z,29.30
2022-08-10T12:57:40.023Z,29.40
2022-08-10T13:02:49.066Z,29.60
2022-08-10T13:08:26.596Z,29.30
2022-08-10T13:13:27.450Z,29.70
2022-08-10T13:18:41.621Z,30.00
2022-08-10T13:24:04.712Z,30.00
2022-08-10T13:29:13.040Z,29.00
2022-08-10T13:34:43.569Z,28.10
2022-08-10T13:39:57.876Z,28.00
2022-08-10T13:44:52.770Z,28.50
2022-08-10T13:50:03.875Z,28.60
2022-08-10T13:55:16.349Z,28.60
2022-08-10T14:00:36.761Z,27.70
2022-08-10T14:05:35.049Z,27.20
2022-08-10T14:11:05.396Z,27.40
2022-08-10T14:15:52.193Z,27.60
2022-08-10T14:20:59.498Z,27.70
2022-08-10T14:26:09.115Z,27.80
2022-08-10T14:31:21.621Z,27.80
2022-08-10T14:36:27.324Z,27.70
2022-08-10T14:42:02.500Z,27.50
2022-08-10T14:46:51.667Z,27.50
2022-08-10T14:52:04.219Z,27.50
2022-08-10T14:57:12.403Z,27.70
2022-08-10T15:02:38.351Z,27.80
2022-08-10T15:07:32.977Z,27.80
2022-08-10T15:12:41.440Z,27.40
2022-08-10T15:17:55.384Z,27.10
2022-08-10T15:23:30.723Z,27.10
2022-08-10T15:28:20.673Z,27.20
2022-08-10T15:34:02.206Z,27.10
2022-08-10T15:39:02.304Z,27.20
2022-08-10T15:44:09.118Z,27.00
2022-08-10T15:49:26.528Z,27.00
2022-08-10T15:54:35.156Z,26.90
2022-08-10T15:59:49.327Z,26.80
2022-08-10T16:05:14.473Z,26.50
2022-08-10T16:10:28.347Z,26.30
2022-08-10T16:15:32.236Z,26.20
2022-08-10T16:20:52.494Z,26.20
2022-08-10T16:25:58.276Z,26.20
2022-08-10T16:31:02.518Z,26.00
2022-08-10T16:36:09.678Z,25.90
2022-08-10T16:42:00.400Z,25.90
2022-08-10T16:46:23.856Z,25.70
2022-08-10T16:51:29.322Z,25.70
2022-08-10T16:56:48.623Z,25.50
2022-08-10T17:01:51.591Z,25.40
2022-08-10T17:06:56.564Z,25.20
2022-08-10T17:12:08.849Z,24.90
2022-08-10T17:17:17.678Z,24.60
2022-08-10T17:22:25.103Z,24.40
2022-08-10T17:28:05.378Z,24.30
2022-08-10T17:32:59.835Z,24.20
2022-08-10T17:38:08.203Z,24.00
2022-08-10T17:43:14.745Z,23.70
2022-08-10T17:48:24.761Z,23.60
2022-08-10T17:53:33.144Z,23.30
2022-08-10T17:58:41.008Z,23.10
2022-08-10T18:03:49.312Z,22.90
2022-08-10T18:09:06.013Z,22.60
2022-08-10T18:14:12.150Z,22.30
2022-08-10T18:19:19.147Z,22.00
2022-08-10T18:24:27.627Z,21.80
2022-08-10T18:29:35.435Z,21.50
2022-08-10T18:34:43.604Z,21.30
2022-08-10T18:39:51.378Z,21.00
2022-08-10T18:45:14.538Z,20.80
2022-08-10T18:50:24.512Z,20.70
2022-08-10T18:55:35.341Z,20.40
2022-08-10T19:00:47.269Z,20.30
2022-08-10T19:06:25.437Z,20.30
2022-08-10T19:11:49.164Z,20.40
2022-08-10T19:17:07.291Z,20.40
2022-08-10T19:22:24.406Z,20.40
2022-08-10T19:28:00.941Z,20.40
2022-08-10T19:33:21.014Z,20.30
2022-08-10T19:38:50.528Z,20.20
2022-08-10T19:44:29.005Z,20.10
2022-08-10T19:50:04.441Z,20.10
2022-08-10T19:55:24.355Z,20.10
2022-08-10T20:00:35.318Z,19.90
2022-08-10T20:06:19.595Z,19.90
2022-08-10T20:11:10.222Z,19.70
2022-08-10T20:16:31.763Z,19.60
2022-08-10T20:21:52.199Z,19.50
2022-08-10T20:27:18.382Z,19.40
2022-08-10T20:32:25.629Z,19.40
2022-08-10T20:38:03.921Z,19.30
2022-08-10T20:43:08.175Z,19.20
2022-08-10T20:48:31.172Z,19.10
2022-08-10T20:53:42.517Z,19.00
2022-08-10T20:59:09.380Z,18.90
2022-08-10T21:04:36.183Z,18.80
2022-08-10T21:10:06.935Z,18.60
2022-08-10T21:15:27.249Z,18.50
2022-08-10T21:20:47.353Z,18.40
2022-08-10T21:26:10.371Z,18.30
2022-08-10T21:31:22.122Z,18.00
2022-08-10T21:36:36.624Z,17.90
2022-08-10T21:42:21.612Z,17.80
2022-08-10T21:48:17.645Z,17.70
2022-08-10T21:53:43.904Z,17.60
2022-08-10T21:59:00.857Z,17.50
2022-08-10T22:04:23.996Z,17.40
2022-08-10T22:09:53.322Z,17.30
2022-08-10T22:15:17.701Z,17.20
2022-08-10T22:20:43.953Z,17.00
2022-08-10T22:26:24.980Z,16.90
2022-08-10T22:32:10.421Z,16.70
2022-08-10T22:37:42.299Z,16.70
2022-08-10T22:43:11.102Z,16.60
2022-08-10T22:48:33.258Z,16.60
2022-08-10T22:54:02.038Z,16.50
2022-08-10T22:59:11.251Z,16.50
2022-08-10T23:04:28.841Z,16.40
2022-08-10T23:09:37.960Z,16.30
2022-08-10T23:15:00.566Z,16.10
2022-08-10T23:20:03.079Z,16.00
2022-08-10T23:25:17.728Z,15.80
2022-08-10T23:30:36.989Z,15.70
2022-08-10T23:36:29.447Z,15.60
2022-08-10T23:41:02.296Z,15.60
2022-08-10T23:46:09.306Z,15.50
2022-08-10T23:51:17.276Z,15.40
2022-08-10T23:56:25.878Z,15.30
